Time;durP1;ratioP1;P1;durP2;ratioP2;P2;SDS_P1;SDS_P2;PMS_P1;PMS_P2;Temp;Humidity;BMP_temperature;BMP_pressure;BME280_temperature;BME280_humidity;BME280_pressure;Samples;Min_cycle;Max_cycle;Signal;HPM_P1;HPM_P2
2023/04/19 00:02:12;;;;;;;10.80;9.77;;;;;;;;;;5114779;28;20223;-76
2023/04/19 00:04:38;;;;;;;11.17;10.07;;;;;;;;;;5114812;28;20199;-76
2023/04/19 00:07:04;;;;;;;12.60;9.40;;;;;;;;;;5114795;28;20199;-77
2023/04/19 00:09:30;;;;;;;12.90;10.43;;;;;;;;;;5114487;28;20206;-76
2023/04/19 00:11:57;;;;;;;11.23;9.63;;;;;;;;;;5114588;28;20222;-76
2023/04/19 00:14:23;;;;;;;12.10;10.47;;;;;;;;;;5114518;28;20227;-76
2023/04/19 00:16:49;;;;;;;11.13;9.93;;;;;;;;;;5114432;28;20205;-76
2023/04/19 00:19:15;;;;;;;13.20;10.67;;;;;;;;;;5114210;28;20215;-77
2023/04/19 00:21:42;;;;;;;12.50;10.60;;;;;;;;;;5114525;28;20210;-77
2023/04/19 00:24:08;;;;;;;11.90;10.70;;;;;;;;;;5114459;28;20223;-76
2023/04/19 00:26:35;;;;;;;11.23;10.10;;;;;;;;;;5114047;28;20684;-77
2023/04/19 00:29:01;;;;;;;10.47;9.47;;;;;;;;;;5114071;28;20203;-77
2023/04/19 00:31:28;;;;;;;11.67;10.47;;;;;;;;;;5114436;28;20206;-76
2023/04/19 00:33:54;;;;;;;12.47;11.17;;;;;;;;;;5114324;28;20216;-76
2023/04/19 00:36:20;;;;;;;11.87;10.60;;;;;;;;;;5114331;28;20199;-76
2023/04/19 00:38:46;;;;;;;11.47;10.10;;;;;;;;;;5114072;28;20666;-76
2023/04/19 00:41:13;;;;;;;13.60;11.27;;;;;;;;;;5113967;28;20218;-77
2023/04/19 00:43:39;;;;;;;12.30;11.00;;;;;;;;;;5114049;28;20594;-76
2023/04/19 00:46:05;;;;;;;11.90;10.53;;;;;;;;;;5114194;28;20203;-76
2023/04/19 00:48:32;;;;;;;12.00;10.70;;;;;;;;;;5114179;28;20572;-76
2023/04/19 00:50:59;;;;;;;13.00;11.33;;;;;;;;;;5113824;28;20666;-76
2023/04/19 00:53:25;;;;;;;13.17;11.27;;;;;;;;;;5114134;28;20226;-76
2023/04/19 00:55:52;;;;;;;13.13;10.80;;;;;;;;;;5114129;28;20199;-76
2023/04/19 00:58:18;;;;;;;12.00;10.67;;;;;;;;;;5112767;28;20202;-76
2023/04/19 01:00:44;;;;;;;13.17;11.23;;;;;;;;;;5114116;28;20255;-76
2023/04/19 01:03:12;;;;;;;12.57;10.80;;;;;;;;;;5113822;28;20223;-76
2023/04/19 01:05:38;;;;;;;13.80;11.07;;;;;;;;;;5113960;28;20203;-76
2023/04/19 01:08:04;;;;;;;12.40;11.10;;;;;;;;;;5114826;28;20199;-76
2023/04/19 01:10:30;;;;;;;13.50;12.10;;;;;;;;;;5113657;28;20203;-77
2023/04/19 01:12:57;;;;;;;13.07;11.47;;;;;;;;;;5113580;28;20227;-77
2023/04/19 01:15:23;;;;;;;13.60;12.20;;;;;;;;;;5114424;28;20207;-77
2023/04/19 01:17:49;;;;;;;13.30;11.90;;;;;;;;;;5113664;28;20211;-77
2023/04/19 01:20:15;;;;;;;13.67;12.00;;;;;;;;;;5113852;28;20217;-77
2023/04/19 01:22:42;;;;;;;14.53;12.13;;;;;;;;;;5113720;28;20235;-77
2023/04/19 01:25:09;;;;;;;14.60;11.43;;;;;;;;;;5113795;28;20203;-77
2023/04/19 01:27:35;;;;;;;14.03;12.00;;;;;;;;;;5113524;28;20207;-77
2023/04/19 01:30:01;;;;;;;12.80;11.47;;;;;;;;;;5115378;28;20677;-77
2023/04/19 01:44:57;;;;;;;13.83;11.93;;;;;;;;;;5117761;28;20182;-77
2023/04/19 01:47:23;;;;;;;14.40;11.83;;;;;;;;;;5117568;28;20222;-77
2023/04/19 01:49:50;;;;;;;15.10;12.23;;;;;;;;;;5117581;28;20203;-76
2023/04/19 01:52:16;;;;;;;13.17;11.43;;;;;;;;;;5117080;28;20662;-77
2023/04/19 01:54:42;;;;;;;15.43;12.97;;;;;;;;;;5117526;28;20290;-77
2023/04/19 01:57:08;;;;;;;14.10;12.50;;;;;;;;;;5116955;28;20297;-77
2023/04/19 01:59:35;;;;;;;12.90;11.60;;;;;;;;;;5117440;28;20209;-77
2023/04/19 02:02:01;;;;;;;13.60;11.93;;;;;;;;;;5117741;28;20297;-77
2023/04/19 02:04:27;;;;;;;14.00;12.43;;;;;;;;;;5117268;28;20203;-77
2023/04/19 02:06:54;;;;;;;13.90;12.20;;;;;;;;;;5117168;28;20203;-77
2023/04/19 02:09:20;;;;;;;14.40;12.73;;;;;;;;;;5117192;28;20203;-77
2023/04/19 02:11:47;;;;;;;14.73;12.67;;;;;;;;;;5117115;28;20199;-77
2023/04/19 02:14:13;;;;;;;16.13;13.30;;;;;;;;;;5117058;28;20338;-77
2023/04/19 02:16:39;;;;;;;13.93;12.37;;;;;;;;;;5117020;28;20203;-77
2023/04/19 02:19:05;;;;;;;14.13;12.50;;;;;;;;;;5116626;28;20211;-76
2023/04/19 02:21:32;;;;;;;13.93;11.30;;;;;;;;;;5116866;28;20203;-76
2023/04/19 02:23:58;;;;;;;14.60;13.00;;;;;;;;;;5116410;28;20227;-76
2023/04/19 02:26:24;;;;;;;14.53;12.90;;;;;;;;;;5116795;28;20207;-77
2023/04/19 02:28:51;;;;;;;13.23;11.87;;;;;;;;;;5116732;28;20210;-77
2023/04/19 02:31:18;;;;;;;14.67;12.10;;;;;;;;;;5116447;28;20214;-76
2023/04/19 02:33:45;;;;;;;13.57;12.13;;;;;;;;;;5116500;28;20223;-76
2023/04/19 02:36:11;;;;;;;16.37;13.80;;;;;;;;;;5117049;28;20298;-77
2023/04/19 02:38:38;;;;;;;14.13;12.60;;;;;;;;;;5116218;28;20203;-77
2023/04/19 02:41:05;;;;;;;13.60;11.60;;;;;;;;;;5116361;28;20207;-77
2023/04/19 02:43:31;;;;;;;13.80;12.30;;;;;;;;;;5116302;28;20234;-77
2023/04/19 02:45:57;;;;;;;13.97;12.07;;;;;;;;;;5116348;28;20225;-77
2023/04/19 02:48:24;;;;;;;13.37;11.97;;;;;;;;;;5116417;28;20577;-77
2023/04/19 02:50:50;;;;;;;14.57;13.17;;;;;;;;;;5116251;28;20586;-76
2023/04/19 02:53:16;;;;;;;14.17;12.67;;;;;;;;;;5116216;28;20589;-77
2023/04/19 02:55:42;;;;;;;15.60;12.43;;;;;;;;;;5116233;28;20203;-77
2023/04/19 02:58:09;;;;;;;14.73;13.23;;;;;;;;;;5116225;28;20203;-77
2023/04/19 03:00:35;;;;;;;13.90;12.50;;;;;;;;;;5116201;28;20210;-77
2023/04/19 03:03:02;;;;;;;16.77;12.97;;;;;;;;;;5115668;28;20690;-77
2023/04/19 03:05:29;;;;;;;13.73;12.33;;;;;;;;;;5115761;28;20199;-77
2023/04/19 03:07:55;;;;;;;14.93;12.83;;;;;;;;;;5115597;28;20203;-77
2023/04/19 03:10:21;;;;;;;14.23;12.70;;;;;;;;;;5115890;28;20574;-77
2023/04/19 03:12:47;;;;;;;16.07;13.83;;;;;;;;;;5115659;28;20219;-77
2023/04/19 03:15:14;;;;;;;15.60;13.97;;;;;;;;;;5115686;28;20203;-77
2023/04/19 03:17:41;;;;;;;15.13;13.53;;;;;;;;;;5115254;28;20214;-77
2023/04/19 03:20:10;;;;;;;17.23;13.17;;;;;;;;;;5115480;28;20209;-77
2023/04/19 03:22:36;;;;;;;16.70;13.43;;;;;;;;;;5115143;28;20643;-77
2023/04/19 03:25:03;;;;;;;14.87;13.37;;;;;;;;;;5115429;28;20207;-76
2023/04/19 03:27:29;;;;;;;15.43;13.60;;;;;;;;;;5115725;28;20294;-76
2023/04/19 03:29:56;;;;;;;15.37;13.67;;;;;;;;;;5114844;28;20200;-76
2023/04/19 03:32:22;;;;;;;16.20;13.07;;;;;;;;;;5115171;28;20302;-76
2023/04/19 03:34:48;;;;;;;15.33;13.60;;;;;;;;;;5114675;28;20199;-77
2023/04/19 03:37:15;;;;;;;16.03;13.90;;;;;;;;;;5114771;28;20211;-76
2023/04/19 03:39:41;;;;;;;15.37;13.43;;;;;;;;;;5114690;28;20218;-76
2023/04/19 03:42:07;;;;;;;15.13;13.63;;;;;;;;;;5115411;28;20207;-76
2023/04/19 03:44:33;;;;;;;16.13;14.10;;;;;;;;;;5114880;28;20230;-77
2023/04/19 03:47:00;;;;;;;16.50;13.60;;;;;;;;;;5114255;28;20211;-76
2023/04/19 03:49:26;;;;;;;14.87;13.37;;;;;;;;;;5114969;28;20215;-76
2023/04/19 03:51:52;;;;;;;16.67;14.97;;;;;;;;;;5113940;28;20231;-77
2023/04/19 03:54:19;;;;;;;14.90;13.40;;;;;;;;;;5114644;28;20219;-76
2023/04/19 03:56:45;;;;;;;18.20;14.10;;;;;;;;;;5114937;28;20219;-76
2023/04/19 03:59:11;;;;;;;16.03;14.33;;;;;;;;;;5114402;28;20203;-77
2023/04/19 04:01:40;;;;;;;15.30;13.77;;;;;;;;;;5114166;28;20661;-76
2023/04/19 04:04:07;;;;;;;15.20;13.60;;;;;;;;;;5114436;28;20234;-76
2023/04/19 04:06:33;;;;;;;17.50;13.93;;;;;;;;;;5114491;28;20218;-76
2023/04/19 04:08:59;;;;;;;16.30;14.60;;;;;;;;;;5114610;28;20225;-76
2023/04/19 04:11:25;;;;;;;15.50;13.80;;;;;;;;;;5114499;28;20662;-76
2023/04/19 04:13:52;;;;;;;17.03;14.93;;;;;;;;;;5114158;28;20584;-76
2023/04/19 04:16:18;;;;;;;16.23;14.53;;;;;;;;;;5114250;28;20203;-76
2023/04/19 04:18:44;;;;;;;17.70;15.87;;;;;;;;;;5114029;28;20219;-76
2023/04/19 04:21:10;;;;;;;17.00;15.20;;;;;;;;;;5114342;28;20221;-76
2023/04/19 04:23:37;;;;;;;17.07;15.27;;;;;;;;;;5114146;28;20227;-77
2023/04/19 04:26:05;;;;;;;17.57;14.97;;;;;;;;;;5114069;28;20260;-76
2023/04/19 04:28:32;;;;;;;17.93;15.00;;;;;;;;;;5114219;28;20288;-76
2023/04/19 04:30:59;;;;;;;16.50;14.77;;;;;;;;;;5114070;28;20203;-76
2023/04/19 04:33:26;;;;;;;16.47;14.53;;;;;;;;;;5114498;28;20229;-76
2023/04/19 04:35:52;;;;;;;17.07;14.80;;;;;;;;;;5114206;28;20207;-76
2023/04/19 04:38:19;;;;;;;16.70;14.93;;;;;;;;;;5113785;28;20206;-76
2023/04/19 04:40:55;;;;;;;17.37;14.10;;;;;;;;;;5113419;28;20214;-76
2023/04/19 04:43:22;;;;;;;17.40;15.53;;;;;;;;;;5113577;28;20235;-77
2023/04/19 04:45:48;;;;;;;19.40;14.83;;;;;;;;;;5113599;28;20666;-76
2023/04/19 04:48:14;;;;;;;16.97;14.27;;;;;;;;;;5113505;28;20215;-76
2023/04/19 04:50:41;;;;;;;16.70;14.90;;;;;;;;;;5113705;28;20617;-76
2023/04/19 04:53:07;;;;;;;16.80;14.80;;;;;;;;;;5113593;28;20326;-76
2023/04/19 04:55:34;;;;;;;15.63;14.00;;;;;;;;;;5113362;28;20209;-76
2023/04/19 04:58:00;;;;;;;16.63;14.87;;;;;;;;;;5113710;28;20203;-76
2023/04/19 05:00:26;;;;;;;15.80;14.10;;;;;;;;;;5113979;28;20250;-76
2023/04/19 05:02:53;;;;;;;17.13;14.20;;;;;;;;;;5113448;28;20227;-76
2023/04/19 05:05:19;;;;;;;15.50;13.47;;;;;;;;;;5112518;28;20282;-76
2023/04/19 05:07:45;;;;;;;15.73;13.93;;;;;;;;;;5112925;28;20223;-76
2023/04/19 05:10:11;;;;;;;16.23;14.40;;;;;;;;;;5113232;28;20761;-77
2023/04/19 05:12:38;;;;;;;17.13;15.33;;;;;;;;;;5113485;28;20223;-76
2023/04/19 05:15:05;;;;;;;16.57;14.20;;;;;;;;;;5113513;28;20202;-76
2023/04/19 05:17:31;;;;;;;16.43;14.73;;;;;;;;;;5113098;28;20253;-76
2023/04/19 05:19:57;;;;;;;17.03;14.23;;;;;;;;;;5113242;28;20188;-76
2023/04/19 05:22:24;;;;;;;16.70;14.23;;;;;;;;;;5112894;28;20233;-77
2023/04/19 05:24:50;;;;;;;16.90;14.77;;;;;;;;;;5113204;28;20229;-76
2023/04/19 05:27:16;;;;;;;16.63;14.77;;;;;;;;;;5111904;28;20244;-76
2023/04/19 05:29:43;;;;;;;16.40;13.87;;;;;;;;;;5112938;28;20658;-76
2023/04/19 05:32:09;;;;;;;15.77;14.17;;;;;;;;;;5113027;28;20266;-76
2023/04/19 05:34:36;;;;;;;16.30;13.83;;;;;;;;;;5113297;28;20210;-76
2023/04/19 05:37:03;;;;;;;15.67;14.03;;;;;;;;;;5112839;28;20207;-77
2023/04/19 05:39:29;;;;;;;15.57;13.73;;;;;;;;;;5112609;28;20559;-77
2023/04/19 05:41:55;;;;;;;15.07;13.50;;;;;;;;;;5113010;28;20203;-76
2023/04/19 05:44:21;;;;;;;17.10;14.47;;;;;;;;;;5112908;28;20246;-76
2023/04/19 05:46:48;;;;;;;15.30;13.70;;;;;;;;;;5112718;28;20210;-76
2023/04/19 05:49:14;;;;;;;14.93;12.83;;;;;;;;;;5113185;28;20215;-76
2023/04/19 05:51:40;;;;;;;16.27;13.57;;;;;;;;;;5112679;28;20207;-76
2023/04/19 05:54:11;;;;;;;15.53;13.73;;;;;;;;;;5112544;28;20227;-76
2023/04/19 05:56:37;;;;;;;14.67;13.17;;;;;;;;;;5112943;28;20187;-76
2023/04/19 05:59:03;;;;;;;16.07;13.53;;;;;;;;;;5113171;28;20203;-76
2023/04/19 06:01:30;;;;;;;14.30;12.80;;;;;;;;;;5112912;28;20204;-76
2023/04/19 06:03:56;;;;;;;15.03;13.00;;;;;;;;;;5112731;28;20234;-76
2023/04/19 06:06:22;;;;;;;14.60;12.97;;;;;;;;;;5113022;28;20215;-77
2023/04/19 06:08:49;;;;;;;16.53;12.47;;;;;;;;;;5112553;28;20214;-76
2023/04/19 06:11:15;;;;;;;15.07;13.43;;;;;;;;;;5112173;28;20786;-77
2023/04/19 06:13:42;;;;;;;14.33;12.77;;;;;;;;;;5112476;28;20215;-77
2023/04/19 06:16:08;;;;;;;14.63;13.10;;;;;;;;;;5114198;28;20298;-77
2023/04/19 06:18:34;;;;;;;14.70;12.80;;;;;;;;;;5116040;28;20218;-77
2023/04/19 06:21:01;;;;;;;14.27;11.27;;;;;;;;;;5115955;28;20203;-76
2023/04/19 06:23:27;;;;;;;14.37;12.93;;;;;;;;;;5115846;28;20231;-77
2023/04/19 06:25:53;;;;;;;14.03;12.40;;;;;;;;;;5116031;28;20203;-78
2023/04/19 06:28:19;;;;;;;16.00;12.90;;;;;;;;;;5116085;28;20209;-77
2023/04/19 06:30:46;;;;;;;15.30;12.70;;;;;;;;;;5115926;28;20213;-77
2023/04/19 06:33:12;;;;;;;14.37;12.87;;;;;;;;;;5115531;28;20736;-77
2023/04/19 06:35:38;;;;;;;13.73;12.40;;;;;;;;;;5115494;28;20666;-77
2023/04/19 06:38:04;;;;;;;13.43;11.90;;;;;;;;;;5115606;28;20666;-77
2023/04/19 06:40:31;;;;;;;13.40;12.10;;;;;;;;;;5115625;28;20207;-77
2023/04/19 06:42:57;;;;;;;14.57;12.30;;;;;;;;;;5115773;28;20238;-77
2023/04/19 06:45:23;;;;;;;14.10;11.87;;;;;;;;;;5116399;28;20220;-77
2023/04/19 06:47:49;;;;;;;14.13;12.27;;;;;;;;;;5116224;28;20203;-77
2023/04/19 06:50:16;;;;;;;13.53;12.20;;;;;;;;;;5115874;28;20218;-77
2023/04/19 06:52:42;;;;;;;13.90;12.40;;;;;;;;;;5115811;28;20230;-77
2023/04/19 06:55:09;;;;;;;13.33;11.93;;;;;;;;;;5115575;28;20203;-77
2023/04/19 06:57:35;;;;;;;13.60;12.20;;;;;;;;;;5115947;27;20211;-77
2023/04/19 07:00:01;;;;;;;14.07;12.00;;;;;;;;;;5115844;28;20203;-78
2023/04/19 07:02:27;;;;;;;13.33;12.03;;;;;;;;;;5115622;28;20230;-77
2023/04/19 07:04:54;;;;;;;14.50;12.37;;;;;;;;;;5115407;28;20246;-77
2023/04/19 07:07:20;;;;;;;13.80;12.33;;;;;;;;;;5115685;28;20211;-76
2023/04/19 07:09:46;;;;;;;13.00;11.67;;;;;;;;;;5115866;28;20234;-77
2023/04/19 07:12:12;;;;;;;13.60;12.03;;;;;;;;;;5115606;28;20214;-77
2023/04/19 07:14:39;;;;;;;13.63;12.33;;;;;;;;;;5115367;28;20203;-77
2023/04/19 07:17:05;;;;;;;14.53;11.53;;;;;;;;;;5115449;28;20203;-77
2023/04/19 07:19:31;;;;;;;12.70;11.10;;;;;;;;;;5115270;28;20203;-76
2023/04/19 07:21:58;;;;;;;13.67;12.30;;;;;;;;;;5115028;28;20203;-77
2023/04/19 07:24:26;;;;;;;12.77;11.47;;;;;;;;;;5114612;28;20234;-77
2023/04/19 07:26:52;;;;;;;14.80;11.60;;;;;;;;;;5114514;28;20215;-77
2023/04/19 07:29:18;;;;;;;13.47;11.57;;;;;;;;;;5115003;28;20566;-77
2023/04/19 07:31:45;;;;;;;13.07;11.70;;;;;;;;;;5115353;28;20213;-76
2023/04/19 07:34:11;;;;;;;14.03;11.57;;;;;;;;;;5114714;28;20223;-77
2023/04/19 07:36:37;;;;;;;13.20;11.07;;;;;;;;;;5114591;28;20211;-77
2023/04/19 07:39:04;;;;;;;12.20;11.00;;;;;;;;;;5115216;28;20257;-77
2023/04/19 07:41:31;;;;;;;12.30;11.00;;;;;;;;;;5115125;28;20542;-77
2023/04/19 07:43:58;;;;;;;14.93;11.10;;;;;;;;;;5114772;28;20234;-77
2023/04/19 07:46:24;;;;;;;12.77;11.37;;;;;;;;;;5114952;28;20210;-76
2023/04/19 07:48:50;;;;;;;12.87;11.03;;;;;;;;;;5114960;28;20207;-76
2023/04/19 07:51:18;;;;;;;12.20;10.90;;;;;;;;;;5114768;28;20203;-77
2023/04/19 07:53:44;;;;;;;13.23;11.10;;;;;;;;;;5115123;28;20227;-77
2023/04/19 07:56:11;;;;;;;15.00;10.93;;;;;;;;;;5114889;28;20214;-77
2023/04/19 07:58:38;;;;;;;11.97;10.70;;;;;;;;;;5114770;28;20575;-77
2023/04/19 08:01:04;;;;;;;13.90;10.77;;;;;;;;;;5114771;28;20307;-77
2023/04/19 08:03:33;;;;;;;12.47;11.03;;;;;;;;;;5114449;28;20227;-77
2023/04/19 08:06:07;;;;;;;11.40;10.20;;;;;;;;;;5114109;28;20689;-76
2023/04/19 08:08:33;;;;;;;10.10;9.10;;;;;;;;;;5114665;28;20210;-77
2023/04/19 08:11:00;;;;;;;10.20;9.20;;;;;;;;;;5114543;28;20209;-77
2023/04/19 08:13:27;;;;;;;9.47;8.37;;;;;;;;;;5114011;28;20280;-77
2023/04/19 08:15:53;;;;;;;10.10;9.10;;;;;;;;;;5114533;28;20205;-76
2023/04/19 08:18:19;;;;;;;10.30;8.57;;;;;;;;;;5114023;28;20208;-76
2023/04/19 08:20:48;;;;;;;9.73;7.93;;;;;;;;;;5114072;28;20722;-76
2023/04/19 08:23:15;;;;;;;9.13;8.23;;;;;;;;;;5114125;28;20334;-76
2023/04/19 08:25:41;;;;;;;9.43;8.53;;;;;;;;;;5113901;28;20223;-77
2023/04/19 08:28:07;;;;;;;9.37;8.23;;;;;;;;;;5113751;28;20208;-77
2023/04/19 08:30:33;;;;;;;9.43;8.50;;;;;;;;;;5113851;28;20203;-77
2023/04/19 08:33:00;;;;;;;8.27;7.43;;;;;;;;;;5113784;28;20223;-77
2023/04/19 08:35:26;;;;;;;9.20;8.20;;;;;;;;;;5113437;28;20202;-76
2023/04/19 08:37:52;;;;;;;9.27;8.37;;;;;;;;;;5113424;28;20205;-76
2023/04/19 08:40:19;;;;;;;8.83;7.93;;;;;;;;;;5113620;28;20219;-77
2023/04/19 08:42:45;;;;;;;8.57;7.77;;;;;;;;;;5113971;28;20607;-76
2023/04/19 08:45:12;;;;;;;7.93;7.17;;;;;;;;;;5113723;28;20581;-76
2023/04/19 08:47:39;;;;;;;9.37;8.00;;;;;;;;;;5113617;28;20217;-77
2023/04/19 08:50:06;;;;;;;8.93;8.07;;;;;;;;;;5113742;28;20205;-77
2023/04/19 08:52:36;;;;;;;8.73;7.93;;;;;;;;;;5113652;28;20233;-77
2023/04/19 08:55:06;;;;;;;9.13;7.73;;;;;;;;;;5113647;28;20202;-76
2023/04/19 08:57:32;;;;;;;8.80;7.83;;;;;;;;;;5113634;28;20202;-77
2023/04/19 08:59:59;;;;;;;8.90;8.00;;;;;;;;;;5114183;28;20207;-76
2023/04/19 09:02:25;;;;;;;9.53;7.97;;;;;;;;;;5113293;28;20233;-76
2023/04/19 09:04:52;;;;;;;8.17;7.37;;;;;;;;;;5113676;28;20227;-77
2023/04/19 09:07:25;;;;;;;7.93;7.13;;;;;;;;;;5113221;28;20205;-77
2023/04/19 09:10:04;;;;;;;10.57;8.27;;;;;;;;;;5113803;28;20206;-77
2023/04/19 09:12:31;;;;;;;9.30;8.13;;;;;;;;;;5113822;28;20227;-77
2023/04/19 09:14:57;;;;;;;9.03;8.13;;;;;;;;;;5113539;28;20228;-77
2023/04/19 09:17:23;;;;;;;9.27;8.33;;;;;;;;;;5113442;28;20203;-76
2023/04/19 09:19:49;;;;;;;9.93;8.93;;;;;;;;;;5113663;28;20191;-77
2023/04/19 09:22:16;;;;;;;10.63;9.60;;;;;;;;;;5113112;28;20217;-77
2023/04/19 09:24:42;;;;;;;11.23;10.03;;;;;;;;;;5112972;28;20309;-77
2023/04/19 09:27:10;;;;;;;10.80;9.50;;;;;;;;;;5113534;28;20260;-77
2023/04/19 09:29:37;;;;;;;11.97;9.70;;;;;;;;;;5113477;28;20205;-77
2023/04/19 09:32:03;;;;;;;10.60;9.50;;;;;;;;;;5113397;28;20209;-76
2023/04/19 09:34:29;;;;;;;10.93;9.83;;;;;;;;;;5113098;28;20203;-77
2023/04/19 09:36:56;;;;;;;11.43;10.10;;;;;;;;;;5113346;28;20206;-77
2023/04/19 09:39:32;;;;;;;12.03;10.20;;;;;;;;;;5113213;28;20658;-76
2023/04/19 09:41:58;;;;;;;9.40;8.47;;;;;;;;;;5113087;28;20214;-76
2023/04/19 09:44:24;;;;;;;10.40;9.10;;;;;;;;;;5113159;28;20230;-77
2023/04/19 09:46:51;;;;;;;10.73;9.57;;;;;;;;;;5113357;28;20203;-77
2023/04/19 09:49:19;;;;;;;11.67;8.27;;;;;;;;;;5113315;28;20211;-77
2023/04/19 09:51:55;;;;;;;9.80;8.77;;;;;;;;;;5116325;28;20252;-76
2023/04/19 09:54:23;;;;;;;8.70;7.87;;;;;;;;;;5116826;28;20268;-76
2023/04/19 09:56:49;;;;;;;9.43;8.43;;;;;;;;;;5117017;28;20301;-76
2023/04/19 09:59:16;;;;;;;8.80;7.90;;;;;;;;;;5117087;28;20554;-76
2023/04/19 10:01:46;;;;;;;9.87;8.90;;;;;;;;;;5116495;28;20199;-76
2023/04/19 10:04:20;;;;;;;8.83;8.03;;;;;;;;;;5116550;28;20226;-76
2023/04/19 10:06:47;;;;;;;8.80;7.47;;;;;;;;;;5116701;28;20222;-76
2023/04/19 10:09:14;;;;;;;8.70;7.77;;;;;;;;;;5116923;28;20207;-76
2023/04/19 10:11:40;;;;;;;9.50;8.30;;;;;;;;;;5117308;28;20226;-76
2023/04/19 10:14:06;;;;;;;9.47;7.80;;;;;;;;;;5116421;28;20254;-75
2023/04/19 10:16:33;;;;;;;9.10;8.20;;;;;;;;;;5116373;28;20211;-76
2023/04/19 10:18:59;;;;;;;8.20;7.40;;;;;;;;;;5116215;27;20276;-76
2023/04/19 10:21:27;;;;;;;8.57;7.67;;;;;;;;;;5116335;28;20569;-75
2023/04/19 10:23:54;;;;;;;12.80;9.30;;;;;;;;;;5116124;28;20223;-76
2023/04/19 10:26:21;;;;;;;10.10;9.07;;;;;;;;;;5116375;28;20230;-76
2023/04/19 10:28:47;;;;;;;9.10;8.13;;;;;;;;;;5116058;28;20236;-75
2023/04/19 10:31:14;;;;;;;12.60;8.43;;;;;;;;;;5116280;28;20218;-76
2023/04/19 10:33:41;;;;;;;9.37;8.43;;;;;;;;;;5116208;28;20229;-76
2023/04/19 10:36:10;;;;;;;9.63;8.63;;;;;;;;;;5116221;28;20206;-74
2023/04/19 10:38:52;;;;;;;9.17;8.07;;;;;;;;;;5115698;28;20208;-76
2023/04/19 10:41:19;;;;;;;8.43;7.63;;;;;;;;;;5116105;28;20208;-76
2023/04/19 10:43:47;;;;;;;9.13;8.23;;;;;;;;;;5115849;28;20221;-75
2023/04/19 10:46:13;;;;;;;9.30;8.33;;;;;;;;;;5115872;27;20227;-76
2023/04/19 10:48:59;;;;;;;13.17;8.77;;;;;;;;;;5115781;28;20202;-75
2023/04/19 10:51:36;;;;;;;10.90;9.43;;;;;;;;;;5115399;28;20258;-76
2023/04/19 10:54:03;;;;;;;9.00;8.17;;;;;;;;;;5115811;28;20560;-75
2023/04/19 10:56:32;;;;;;;9.87;8.87;;;;;;;;;;5115495;28;20293;-76
2023/04/19 10:59:01;;;;;;;9.67;8.77;;;;;;;;;;5115581;28;20211;-75
2023/04/19 11:01:38;;;;;;;10.40;8.57;;;;;;;;;;5115677;28;20565;-76
2023/04/19 11:04:05;;;;;;;12.17;8.90;;;;;;;;;;5115719;28;20260;-75
2023/04/19 11:06:32;;;;;;;8.90;8.00;;;;;;;;;;5115778;27;20219;-75
2023/04/19 11:08:59;;;;;;;9.10;8.07;;;;;;;;;;5115577;28;20213;-75
2023/04/19 11:11:26;;;;;;;10.67;8.90;;;;;;;;;;5115298;28;20605;-75
2023/04/19 11:13:55;;;;;;;10.47;8.97;;;;;;;;;;5115008;28;20654;-76
2023/04/19 11:16:21;;;;;;;10.43;8.37;;;;;;;;;;5115223;28;20228;-75
2023/04/19 11:18:47;;;;;;;8.90;8.00;;;;;;;;;;5115504;28;20222;-75
2023/04/19 11:21:14;;;;;;;9.10;8.20;;;;;;;;;;5115462;28;20207;-75
2023/04/19 11:23:40;;;;;;;10.23;8.60;;;;;;;;;;5115383;28;20249;-76
2023/04/19 11:26:10;;;;;;;10.83;9.13;;;;;;;;;;5114835;28;20612;-75
2023/04/19 11:28:36;;;;;;;10.03;9.03;;;;;;;;;;5115093;28;20553;-75
2023/04/19 11:31:03;;;;;;;9.73;8.73;;;;;;;;;;5114746;28;20199;-75
2023/04/19 11:33:36;;;;;;;9.03;8.10;;;;;;;;;;5115036;28;20628;-75
2023/04/19 11:36:03;;;;;;;10.43;9.33;;;;;;;;;;5115061;28;20207;-75
2023/04/19 11:38:30;;;;;;;11.40;10.20;;;;;;;;;;5114750;28;20232;-76
2023/04/19 11:41:00;;;;;;;13.97;10.50;;;;;;;;;;5115270;28;20214;-75
2023/04/19 11:43:37;;;;;;;12.93;10.97;;;;;;;;;;5114739;28;20296;-75
2023/04/19 11:46:07;;;;;;;13.73;11.00;;;;;;;;;;5115226;28;20230;-75
2023/04/19 11:48:33;;;;;;;12.27;11.07;;;;;;;;;;5114888;28;20200;-75
2023/04/19 11:51:00;;;;;;;12.90;11.60;;;;;;;;;;5114629;28;20665;-76
2023/04/19 11:53:27;;;;;;;13.87;12.27;;;;;;;;;;5114581;28;20237;-75
2023/04/19 11:55:56;;;;;;;14.30;12.80;;;;;;;;;;5114608;28;20306;-75
2023/04/19 11:58:22;;;;;;;15.13;13.63;;;;;;;;;;5114698;28;20203;-76
2023/04/19 12:00:49;;;;;;;15.83;14.13;;;;;;;;;;5114738;28;20217;-76
2023/04/19 12:03:16;;;;;;;16.43;14.83;;;;;;;;;;5114525;28;20227;-76
2023/04/19 12:05:58;;;;;;;16.50;14.80;;;;;;;;;;5114214;28;20223;-76
2023/04/19 12:08:47;;;;;;;17.57;15.80;;;;;;;;;;5113075;28;20205;-76
2023/04/19 12:11:14;;;;;;;17.63;15.80;;;;;;;;;;5114191;28;20552;-76
2023/04/19 12:13:40;;;;;;;19.60;16.13;;;;;;;;;;5113719;28;20245;-76
2023/04/19 12:16:07;;;;;;;18.03;16.13;;;;;;;;;;5114129;28;20205;-76
2023/04/19 12:18:44;;;;;;;17.27;15.57;;;;;;;;;;5114200;28;20207;-76
2023/04/19 12:21:11;;;;;;;18.20;16.23;;;;;;;;;;5113992;28;20769;-76
2023/04/19 12:23:37;;;;;;;16.67;14.87;;;;;;;;;;5114240;28;20245;-76
2023/04/19 12:26:06;;;;;;;17.40;15.63;;;;;;;;;;5114125;28;20230;-76
2023/04/19 12:28:32;;;;;;;17.37;15.53;;;;;;;;;;5113782;28;20592;-76
2023/04/19 12:30:59;;;;;;;18.17;16.27;;;;;;;;;;5113612;28;20207;-76
2023/04/19 12:33:25;;;;;;;20.50;17.53;;;;;;;;;;5114118;28;20573;-75
2023/04/19 12:35:51;;;;;;;24.93;17.73;;;;;;;;;;5114082;28;20207;-75
2023/04/19 12:38:17;;;;;;;19.27;17.17;;;;;;;;;;5113927;28;20207;-76
2023/04/19 12:40:44;;;;;;;22.67;17.53;;;;;;;;;;5113960;28;20289;-76
2023/04/19 12:43:11;;;;;;;20.73;17.73;;;;;;;;;;5113666;28;20690;-77
2023/04/19 12:45:37;;;;;;;20.10;16.73;;;;;;;;;;5113783;28;20318;-76
2023/04/19 12:48:03;;;;;;;20.93;16.83;;;;;;;;;;5113857;28;20202;-77
2023/04/19 12:50:30;;;;;;;20.33;16.27;;;;;;;;;;5113619;28;20209;-76
2023/04/19 12:52:56;;;;;;;20.50;16.53;;;;;;;;;;5113342;28;20223;-77
2023/04/19 12:55:22;;;;;;;19.80;16.70;;;;;;;;;;5113269;28;20210;-77
2023/04/19 12:57:48;;;;;;;17.90;15.53;;;;;;;;;;5113906;28;20207;-77
2023/04/19 13:00:16;;;;;;;18.23;16.20;;;;;;;;;;5113356;28;20203;-75
2023/04/19 13:02:42;;;;;;;19.00;15.70;;;;;;;;;;5113709;28;20280;-77
2023/04/19 13:05:08;;;;;;;19.73;14.43;;;;;;;;;;5113411;28;20211;-76
2023/04/19 13:07:35;;;;;;;18.73;15.57;;;;;;;;;;5113579;28;20287;-77
2023/04/19 13:10:02;;;;;;;20.47;16.27;;;;;;;;;;5113558;28;20199;-77
2023/04/19 13:12:28;;;;;;;15.53;13.77;;;;;;;;;;5113508;28;20317;-77
2023/04/19 13:14:54;;;;;;;19.33;14.80;;;;;;;;;;5113074;28;20688;-77
2023/04/19 13:17:21;;;;;;;14.10;12.37;;;;;;;;;;5113442;28;20256;-77
2023/04/19 13:19:47;;;;;;;15.97;12.97;;;;;;;;;;5113427;28;20191;-77
2023/04/19 13:22:13;;;;;;;16.77;12.27;;;;;;;;;;5113387;28;20203;-77
2023/04/19 13:24:39;;;;;;;18.13;12.10;;;;;;;;;;5113441;28;20211;-77
2023/04/19 13:27:06;;;;;;;13.30;11.47;;;;;;;;;;5116985;28;20229;-77
2023/04/19 13:29:32;;;;;;;12.97;11.17;;;;;;;;;;5117521;28;20203;-78
2023/04/19 13:31:58;;;;;;;13.47;11.13;;;;;;;;;;5117884;28;20625;-78
2023/04/19 13:34:25;;;;;;;13.77;11.70;;;;;;;;;;5117766;28;20557;-78
2023/04/19 13:36:51;;;;;;;14.37;10.93;;;;;;;;;;5116990;28;20194;-78
2023/04/19 13:39:17;;;;;;;13.17;11.53;;;;;;;;;;5117421;28;20324;-77
2023/04/19 13:41:43;;;;;;;13.03;10.67;;;;;;;;;;5117219;28;20203;-78
2023/04/19 13:44:10;;;;;;;12.83;10.63;;;;;;;;;;5116868;28;20230;-77
2023/04/19 13:46:36;;;;;;;11.80;10.57;;;;;;;;;;5116783;28;20230;-78
2023/04/19 13:49:02;;;;;;;13.60;10.97;;;;;;;;;;5117093;28;20207;-77
2023/04/19 13:51:28;;;;;;;12.13;10.93;;;;;;;;;;5116917;28;20213;-78
2023/04/19 13:53:54;;;;;;;11.83;10.63;;;;;;;;;;5116735;28;20227;-78
2023/04/19 13:56:21;;;;;;;11.10;10.00;;;;;;;;;;5117052;28;20207;-78
2023/04/19 13:58:47;;;;;;;11.77;9.70;;;;;;;;;;5116926;28;20207;-78
2023/04/19 14:01:13;;;;;;;10.57;9.47;;;;;;;;;;5116564;28;20214;-78
2023/04/19 14:03:40;;;;;;;10.90;9.80;;;;;;;;;;5116917;28;20230;-78
2023/04/19 14:06:06;;;;;;;14.63;10.43;;;;;;;;;;5116895;28;20226;-78
2023/04/19 14:08:32;;;;;;;11.87;9.53;;;;;;;;;;5117342;28;20211;-79
2023/04/19 14:10:59;;;;;;;11.10;9.87;;;;;;;;;;5116757;28;20206;-78
2023/04/19 14:13:25;;;;;;;10.57;9.47;;;;;;;;;;5116644;28;20270;-78
2023/04/19 14:15:52;;;;;;;11.30;10.00;;;;;;;;;;5116453;28;20199;-79
2023/04/19 14:18:18;;;;;;;10.60;9.50;;;;;;;;;;5115933;28;20227;-78
2023/04/19 14:20:44;;;;;;;9.97;8.90;;;;;;;;;;5115350;28;20205;-79
2023/04/19 14:23:10;;;;;;;10.63;9.60;;;;;;;;;;5115503;28;20237;-79
2023/04/19 14:25:37;;;;;;;11.00;8.80;;;;;;;;;;5115800;28;20654;-78
2023/04/19 14:28:03;;;;;;;9.63;8.73;;;;;;;;;;5114981;28;20677;-78
2023/04/19 14:30:30;;;;;;;10.43;9.43;;;;;;;;;;5115196;28;20216;-78
2023/04/19 14:32:56;;;;;;;10.10;9.07;;;;;;;;;;5114958;28;20229;-78
2023/04/19 14:35:22;;;;;;;9.60;8.70;;;;;;;;;;5114729;28;20205;-78